Time;durP1;ratioP1;P1;durP2;ratioP2;P2;SDS_P1;SDS_P2;PMS_P1;PMS_P2;Temp;Humidity;BMP_temperature;BMP_pressure;BME280_temperature;BME280_humidity;BME280_pressure;Samples;Min_cycle;Max_cycle;Signal;HPM_P1;HPM_P2
2022/11/08 00:03:03;;;;;;;11.38;2.72;;;;;;;13.53;69.80;99837.06;5038079;28;20413;-81
2022/11/08 00:13:59;;;;;;;4.65;2.13;;;;;;;13.54;70.63;99839.53;5035351;28;20060;-80
2022/11/08 00:16:27;;;;;;;9.18;2.40;;;;;;;13.51;70.08;99837.41;5033776;28;20053;-81
2022/11/08 00:18:54;;;;;;;5.00;1.90;;;;;;;13.37;70.06;99842.53;5034297;28;20068;-80
2022/11/08 00:21:21;;;;;;;6.63;2.28;;;;;;;13.40;70.68;99848.25;5034292;28;20053;-80
2022/11/08 00:23:49;;;;;;;5.80;2.22;;;;;;;13.41;70.75;99849.06;5034301;28;20060;-80
2022/11/08 00:26:17;;;;;;;3.95;1.92;;;;;;;13.34;70.56;99840.44;5034178;28;20057;-80
2022/11/08 00:28:45;;;;;;;7.43;2.38;;;;;;;13.35;70.58;99833.66;5034038;28;20061;-80
2022/11/08 00:31:13;;;;;;;7.10;2.33;;;;;;;13.40;70.10;99831.47;5031759;28;20052;-80
2022/11/08 00:33:43;;;;;;;8.85;2.45;;;;;;;13.35;70.75;99839.28;5033681;28;20061;-80
2022/11/08 00:36:10;;;;;;;4.82;2.13;;;;;;;13.25;71.08;99846.13;5033872;28;20068;-80
2022/11/08 00:38:41;;;;;;;6.82;2.42;;;;;;;13.35;69.90;99839.28;5033611;28;20426;-81
2022/11/08 00:41:09;;;;;;;7.45;2.00;;;;;;;13.30;70.89;99856.28;5032535;28;20057;-81
2022/11/08 00:43:38;;;;;;;5.18;1.77;;;;;;;13.32;70.67;99838.00;5034125;28;20068;-81
2022/11/08 00:46:06;;;;;;;6.72;2.20;;;;;;;13.19;71.02;99839.94;5034077;28;20570;-80
2022/11/08 00:48:34;;;;;;;9.43;2.83;;;;;;;13.27;69.94;99835.41;5034073;28;20061;-81
2022/11/08 00:51:02;;;;;;;4.75;1.95;;;;;;;13.23;69.96;99831.69;5033481;28;20466;-80
2022/11/08 00:53:31;;;;;;;6.65;2.22;;;;;;;13.30;70.52;99826.34;5033788;28;20057;-81
2022/11/08 00:56:00;;;;;;;3.67;1.90;;;;;;;13.23;69.83;99830.84;5033116;28;20065;-80
2022/11/08 00:58:27;;;;;;;6.20;2.25;;;;;;;13.27;70.08;99828.97;5033768;28;20064;-80
2022/11/08 01:00:56;;;;;;;8.65;2.55;;;;;;;13.24;69.63;99841.69;5033428;28;20057;-80
2022/11/08 01:03:24;;;;;;;12.50;2.90;;;;;;;13.21;70.37;99834.00;5033627;28;20057;-81
2022/11/08 01:05:56;;;;;;;5.15;1.90;;;;;;;13.20;69.62;99844.34;5033269;28;20061;-80
2022/11/08 01:08:25;;;;;;;7.25;2.30;;;;;;;13.33;70.07;99836.84;5033912;28;20064;-80
2022/11/08 01:10:53;;;;;;;7.15;2.22;;;;;;;13.36;70.06;99833.34;5031853;28;20061;-81
2022/11/08 01:13:21;;;;;;;5.70;2.15;;;;;;;13.47;68.89;99836.47;5024938;28;20053;-81
2022/11/08 01:15:48;;;;;;;6.22;2.08;;;;;;;13.42;69.66;99830.28;5032959;28;20482;-80
2022/11/08 01:18:18;;;;;;;6.45;1.90;;;;;;;13.53;69.53;99834.28;5025240;28;20059;-81
2022/11/08 01:20:46;;;;;;;;;;;;;;;13.51;68.55;99831.81;5033559;28;20057;-80
2022/11/08 01:23:14;;;;;;;5.47;2.30;;;;;;;13.55;68.11;99823.56;5025116;28;19921;-81
2022/11/08 01:25:44;;;;;;;5.60;1.63;;;;;;;13.63;68.52;99830.16;5031911;28;20445;-80
2022/11/08 01:28:12;;;;;;;7.55;2.05;;;;;;;13.71;68.05;99832.88;5032358;28;20072;-81
2022/11/08 01:30:42;;;;;;;5.35;2.13;;;;;;;13.83;67.13;99829.22;5033198;28;20407;-81
2022/11/08 01:33:10;;;;;;;6.13;2.13;;;;;;;13.86;68.25;99828.53;5013376;28;20060;-81
2022/11/08 01:35:39;;;;;;;5.88;2.00;;;;;;;13.79;68.78;99814.28;5013201;28;20494;-81
2022/11/08 01:38:08;;;;;;;6.90;2.22;;;;;;;13.72;68.38;99820.50;5013247;28;20054;-81
2022/11/08 01:40:43;;;;;;;5.15;1.88;;;;;;;13.90;67.20;99823.88;5019823;28;20050;-81
2022/11/08 01:43:35;;;;;;;6.88;1.88;;;;;;;13.77;68.04;99822.22;5032651;28;20414;-81
2022/11/08 01:46:34;;;;;;;4.82;1.77;;;;;;;13.96;67.33;99807.63;5032665;28;20061;-80
2022/11/08 01:49:28;;;;;;;6.20;2.10;;;;;;;13.95;67.19;99820.00;5032660;28;20060;-80
2022/11/08 01:52:03;;;;;;;7.60;2.47;;;;;;;13.91;66.99;99808.69;5031968;28;20053;-80
2022/11/08 01:54:38;;;;;;;6.32;2.15;;;;;;;13.98;67.72;99810.88;5031918;28;20057;-80
2022/11/08 01:57:08;;;;;;;4.15;2.03;;;;;;;13.96;67.56;99807.63;5031840;28;20508;-80
2022/11/08 01:59:39;;;;;;;3.30;1.90;;;;;;;14.00;67.26;99805.75;5032163;28;20061;-80
2022/11/08 02:02:08;;;;;;;8.57;2.10;;;;;;;14.06;66.75;99798.72;5031934;28;20056;-81
2022/11/08 02:04:38;;;;;;;5.90;2.63;;;;;;;13.91;66.79;99796.69;5032257;28;20410;-81
2022/11/08 02:07:12;;;;;;;4.90;1.83;;;;;;;13.99;67.16;99801.31;5032004;28;20058;-81
2022/11/08 02:09:44;;;;;;;4.30;1.90;;;;;;;14.00;67.36;99786.94;5018566;28;20069;-81
2022/11/08 02:12:13;;;;;;;4.90;1.60;;;;;;;14.13;66.29;99792.50;5012308;28;20057;-81
2022/11/08 02:15:00;;;;;;;3.15;1.90;;;;;;;14.14;66.06;99794.16;5012620;28;20402;-80
2022/11/08 02:17:27;;;;;;;4.60;1.75;;;;;;;14.10;65.89;99784.84;5012676;28;20057;-81
2022/11/08 02:19:56;;;;;;;4.50;1.73;;;;;;;14.07;67.27;99800.38;5012559;28;20141;-81
2022/11/08 02:22:29;;;;;;;5.45;1.70;;;;;;;14.02;66.79;99803.41;5012460;28;20529;-80
2022/11/08 02:25:16;;;;;;;5.38;2.25;;;;;;;14.16;66.91;99789.03;5012130;28;20054;-80
2022/11/08 02:27:44;;;;;;;6.60;2.00;;;;;;;14.13;66.33;99776.56;5034761;28;20057;-81
2022/11/08 02:30:11;;;;;;;6.82;1.77;;;;;;;14.22;65.19;99784.81;5032975;28;20061;-80
2022/11/08 02:32:40;;;;;;;4.53;1.63;;;;;;;14.24;64.48;99788.06;5031395;28;20417;-81
2022/11/08 02:35:12;;;;;;;3.63;1.45;;;;;;;14.22;65.08;99782.00;5031814;28;20064;-81
2022/11/08 02:37:42;;;;;;;4.25;1.52;;;;;;;14.21;64.34;99784.00;5031704;28;20054;-81
2022/11/08 02:40:10;;;;;;;5.68;1.80;;;;;;;14.23;64.91;99764.00;5020129;28;20065;-80
2022/11/08 02:42:39;;;;;;;4.22;1.52;;;;;;;14.34;64.16;99767.09;5012398;28;20062;-80
2022/11/08 02:45:08;;;;;;;5.50;1.87;;;;;;;14.32;64.23;99756.28;5012053;28;20057;-80
2022/11/08 02:47:35;;;;;;;5.47;1.50;;;;;;;14.45;63.05;99762.63;5012577;28;20064;-81
2022/11/08 02:50:04;;;;;;;7.53;2.25;;;;;;;14.27;63.11;99764.91;5012150;28;20393;-81
2022/11/08 02:52:32;;;;;;;6.00;1.58;;;;;;;14.26;63.34;99756.88;5012075;28;20077;-81
2022/11/08 02:55:00;;;;;;;3.10;1.42;;;;;;;14.40;62.91;99757.28;5038306;28;20052;-81
2022/11/08 02:57:27;;;;;;;4.90;1.90;;;;;;;14.34;63.68;99741.88;5033107;28;20061;-81
2022/11/08 02:59:57;;;;;;;4.13;1.30;;;;;;;14.41;63.79;99753.31;5030943;28;20061;-80
2022/11/08 03:02:24;;;;;;;3.47;1.60;;;;;;;14.34;63.59;99747.50;5032370;28;20053;-80
2022/11/08 03:04:51;;;;;;;4.38;1.60;;;;;;;14.36;64.08;99750.75;5035174;28;20136;-81
2022/11/08 03:07:19;;;;;;;4.38;1.65;;;;;;;14.27;63.19;99736.09;5035498;28;20513;-81
2022/11/08 03:09:46;;;;;;;3.72;1.80;;;;;;;14.41;63.03;99739.31;5035389;28;20058;-81
2022/11/08 03:12:14;;;;;;;5.82;1.60;;;;;;;14.32;64.20;99738.63;5035598;28;20045;-81
2022/11/08 03:14:43;;;;;;;4.85;1.58;;;;;;;14.22;64.11;99734.38;5033539;28;20060;-80
2022/11/08 03:17:12;;;;;;;3.22;1.70;;;;;;;14.22;64.16;99731.56;5032695;28;20068;-81
2022/11/08 03:19:40;;;;;;;3.80;1.50;;;;;;;14.20;63.67;99731.94;5034696;28;20068;-80
2022/11/08 03:22:07;;;;;;;4.47;1.95;;;;;;;14.18;64.36;99728.66;5035213;28;20080;-81
2022/11/08 03:24:34;;;;;;;3.88;1.65;;;;;;;14.02;64.11;99725.81;5034405;28;20406;-81
2022/11/08 03:27:03;;;;;;;3.55;1.58;;;;;;;14.02;64.40;99713.78;5034839;28;20386;-80
2022/11/08 03:29:30;;;;;;;2.90;1.50;;;;;;;14.02;64.82;99744.59;5035308;28;20068;-81
2022/11/08 03:31:58;;;;;;;4.47;1.48;;;;;;;13.99;64.72;99722.91;5034562;28;20532;-80
2022/11/08 03:34:26;;;;;;;3.80;1.42;;;;;;;14.01;64.72;99712.19;5035575;28;20061;-81
2022/11/08 03:36:55;;;;;;;5.38;1.65;;;;;;;13.90;65.07;99711.88;5034560;28;20060;-80
2022/11/08 03:39:22;;;;;;;4.90;1.85;;;;;;;13.84;65.45;99701.25;5032423;28;20054;-80
2022/11/08 03:41:52;;;;;;;6.45;2.28;;;;;;;13.74;65.47;99697.81;5035208;28;20060;-80
2022/11/08 03:44:20;;;;;;;;;;;;;;;13.57;66.57;99703.69;5035599;28;20049;-81
2022/11/08 03:46:47;;;;;;;6.43;1.60;;;;;;;13.62;66.83;99700.63;5034926;28;20017;-81
2022/11/08 03:49:14;;;;;;;4.43;1.60;;;;;;;13.48;67.36;99695.44;5034453;28;20054;-80
2022/11/08 03:51:43;;;;;;;3.13;1.90;;;;;;;13.51;66.88;99683.53;5033986;28;20068;-80
2022/11/08 03:54:10;;;;;;;3.25;1.70;;;;;;;13.44;67.12;99690.88;5035561;28;20053;-80
2022/11/08 03:56:38;;;;;;;4.30;1.58;;;;;;;13.50;66.29;99686.69;5035410;28;20068;-77
2022/11/08 03:59:06;;;;;;;4.65;1.83;;;;;;;13.48;66.97;99680.63;5034200;28;20061;-76
2022/11/08 04:01:34;;;;;;;6.07;1.60;;;;;;;13.40;66.10;99676.81;5034626;28;20053;-77
2022/11/08 04:04:01;;;;;;;4.90;1.70;;;;;;;13.38;66.27;99673.56;5034121;28;20057;-77
2022/11/08 04:06:28;;;;;;;5.38;1.70;;;;;;;13.31;67.19;99668.56;5030617;28;20057;-77
2022/11/08 04:08:57;;;;;;;5.95;1.50;;;;;;;13.39;66.33;99670.38;5014842;28;20144;-76
2022/11/08 04:16:55;;;;;;;6.68;1.65;;;;;;;13.43;66.06;99666.88;5040669;28;20060;-77
2022/11/08 04:22:11;;;;;;;5.53;1.52;;;;;;;13.43;66.78;99666.88;5040533;28;20061;-76
2022/11/08 04:24:40;;;;;;;2.83;1.27;;;;;;;13.48;66.15;99661.88;5037250;28;20057;-77
2022/11/08 04:27:09;;;;;;;4.20;1.97;;;;;;;13.46;66.14;99661.41;5015577;28;20473;-76
2022/11/08 04:29:37;;;;;;;4.47;1.60;;;;;;;13.49;65.34;99671.06;5014953;28;20476;-76
2022/11/08 04:32:05;;;;;;;5.03;2.05;;;;;;;13.40;65.41;99662.81;5027721;28;20061;-77
2022/11/08 04:34:32;;;;;;;5.00;1.50;;;;;;;13.42;65.20;99663.28;5034705;28;20505;-77
2022/11/08 04:36:59;;;;;;;4.10;1.45;;;;;;;13.43;65.51;99664.09;5031896;28;20061;-77
2022/11/08 04:39:27;;;;;;;3.83;1.75;;;;;;;13.43;66.52;99662.09;5031831;28;20080;-78
2022/11/08 04:41:55;;;;;;;3.88;1.88;;;;;;;13.42;66.07;99659.66;5035011;28;20057;-77
2022/11/08 04:44:23;;;;;;;3.85;1.40;;;;;;;13.40;66.66;99655.25;5034441;28;20086;-77
2022/11/08 04:46:50;;;;;;;3.55;1.83;;;;;;;13.43;66.38;99650.09;5034542;28;20054;-77
2022/11/08 04:49:20;;;;;;;5.85;1.77;;;;;;;13.34;66.05;99639.88;5034799;28;20053;-77
2022/11/08 04:51:50;;;;;;;3.28;1.80;;;;;;;13.36;65.71;99640.31;5033650;28;20410;-77
2022/11/08 04:54:18;;;;;;;4.57;1.35;;;;;;;13.42;65.58;99648.47;5034749;28;20060;-76
2022/11/08 04:56:45;;;;;;;4.22;1.63;;;;;;;13.31;65.70;99645.34;5034193;28;20057;-77
2022/11/08 04:59:14;;;;;;;4.57;1.63;;;;;;;13.31;66.23;99636.94;5035097;28;20068;-77
2022/11/08 05:01:41;;;;;;;4.50;1.60;;;;;;;13.33;66.63;99632.66;5055163;28;20059;-77
2022/11/08 05:04:08;;;;;;;4.90;1.83;;;;;;;13.29;66.40;99637.31;5056867;28;20049;-76
2022/11/08 05:06:36;;;;;;;4.30;1.60;;;;;;;13.26;65.47;99635.19;5057429;28;20063;-78
2022/11/08 05:09:03;;;;;;;4.43;1.65;;;;;;;13.32;65.44;99622.63;5056712;28;20071;-79
2022/11/08 05:11:31;;;;;;;3.90;1.60;;;;;;;13.34;65.46;99622.28;5050185;28;20041;-78
2022/11/08 05:13:58;;;;;;;4.43;1.80;;;;;;;13.34;64.86;99617.50;5037071;28;20053;-79
2022/11/08 05:16:29;;;;;;;3.88;1.83;;;;;;;13.34;65.07;99628.69;5053833;28;20050;-77
2022/11/08 05:18:56;;;;;;;4.63;1.52;;;;;;;13.33;65.14;99618.69;5056914;28;20043;-78
2022/11/08 05:24:11;;;;;;;4.95;1.83;;;;;;;13.36;64.99;99628.34;5062210;28;20171;-78
2022/11/08 05:26:42;;;;;;;5.35;1.95;;;;;;;13.34;65.05;99628.69;5053978;28;20067;-77
2022/11/08 05:29:10;;;;;;;5.38;2.03;;;;;;;13.37;64.36;99633.56;5040051;28;20057;-77
2022/11/08 05:31:39;;;;;;;3.10;1.92;;;;;;;13.40;64.02;99613.28;5033098;28;20081;-77
2022/11/08 05:34:06;;;;;;;3.73;1.63;;;;;;;13.28;64.77;99604.88;5033414;28;20488;-77
2022/11/08 05:36:34;;;;;;;5.00;2.20;;;;;;;13.26;64.63;99612.00;5032664;28;20069;-77
2022/11/08 05:39:01;;;;;;;3.58;1.83;;;;;;;13.27;64.95;99608.03;5032117;28;20061;-77
2022/11/08 05:41:30;;;;;;;5.25;1.80;;;;;;;13.33;64.31;99601.91;5033403;28;20069;-76
2022/11/08 05:43:57;;;;;;;3.10;1.45;;;;;;;13.30;64.34;99590.59;5032842;28;20057;-77
2022/11/08 05:46:25;;;;;;;3.38;1.80;;;;;;;13.31;64.10;99581.00;5033030;28;20383;-76
2022/11/08 05:48:53;;;;;;;4.85;2.05;;;;;;;13.19;63.78;99607.03;5028753;28;20076;-77
2022/11/08 05:51:22;;;;;;;8.77;1.77;;;;;;;13.17;63.97;99590.59;5017816;28;20080;-77
2022/11/08 05:53:50;;;;;;;3.65;1.63;;;;;;;13.15;63.52;99583.72;5032067;28;20057;-77
2022/11/08 05:56:18;;;;;;;3.90;1.50;;;;;;;13.15;63.62;99570.56;5032140;28;20482;-77
2022/11/08 05:58:45;;;;;;;4.65;2.20;;;;;;;13.25;64.07;99577.66;5032463;28;20072;-77
2022/11/08 06:01:14;;;;;;;6.45;1.70;;;;;;;13.20;63.03;99575.88;5032257;28;20061;-76
2022/11/08 06:03:41;;;;;;;4.20;1.80;;;;;;;13.18;63.34;99561.44;5031633;28;20061;-76
2022/11/08 06:06:12;;;;;;;2.92;1.60;;;;;;;13.15;62.80;99544.59;5031859;28;20417;-76
2022/11/08 06:08:40;;;;;;;4.45;1.50;;;;;;;13.14;63.24;99556.91;5029314;28;20417;-77
2022/11/08 06:11:09;;;;;;;4.00;1.55;;;;;;;13.17;63.55;99547.84;5026910;28;20056;-76
2022/11/08 06:13:37;;;;;;;5.63;1.80;;;;;;;13.10;62.23;99545.66;5031762;28;20413;-79
2022/11/08 06:16:06;;;;;;;3.60;1.70;;;;;;;13.23;62.71;99553.97;5022267;28;20073;-77
2022/11/08 06:18:34;;;;;;;2.97;1.30;;;;;;;13.23;62.45;99554.81;5013002;28;20064;-78
2022/11/08 06:21:03;;;;;;;2.55;1.35;;;;;;;13.24;62.26;99534.06;5032053;28;20054;-77
2022/11/08 06:23:32;;;;;;;2.43;1.37;;;;;;;13.22;62.21;99530.78;5029086;28;20053;-77
2022/11/08 06:26:00;;;;;;;3.15;1.40;;;;;;;13.18;61.67;99546.66;5017823;28;20053;-77
2022/11/08 06:28:28;;;;;;;3.45;1.55;;;;;;;13.15;61.14;99537.00;5029411;28;20060;-76
2022/11/08 06:30:57;;;;;;;3.58;1.55;;;;;;;13.12;60.82;99534.09;5029444;28;20068;-76
2022/11/08 06:33:25;;;;;;;3.55;1.58;;;;;;;13.13;60.78;99530.16;5013049;28;20068;-77
2022/11/08 06:35:52;;;;;;;2.60;1.23;;;;;;;12.97;62.35;99525.28;5021434;28;20062;-83
2022/11/08 06:38:20;;;;;;;4.00;1.20;;;;;;;13.28;62.95;99514.59;5030838;28;20068;-82
2022/11/08 06:40:49;;;;;;;3.83;1.25;;;;;;;13.46;60.72;99504.75;5031603;28;20065;-82
2022/11/08 06:43:17;;;;;;;3.15;1.20;;;;;;;13.58;60.10;99498.25;5018703;28;20062;-82
2022/11/08 06:45:45;;;;;;;3.08;1.20;;;;;;;13.80;57.65;99491.25;5012032;28;20061;-80
2022/11/08 06:48:12;;;;;;;2.40;1.20;;;;;;;13.89;57.34;99477.06;5016410;28;20053;-76
2022/11/08 06:50:39;;;;;;;2.85;1.35;;;;;;;13.97;56.65;99478.88;5026295;28;20068;-76
2022/11/08 06:53:08;;;;;;;4.35;1.23;;;;;;;14.03;56.76;99477.44;5014440;28;20413;-76
2022/11/08 06:55:36;;;;;;;4.03;1.30;;;;;;;14.12;56.66;99469.66;5031525;28;20053;-75
2022/11/08 06:58:05;;;;;;;2.78;1.08;;;;;;;14.08;55.33;99477.16;5031337;28;20060;-76
2022/11/08 07:00:32;;;;;;;5.90;1.43;;;;;;;14.14;55.71;99486.91;5031987;28;20497;-75
2022/11/08 07:03:02;;;;;;;4.07;1.20;;;;;;;14.18;54.49;99485.00;5030696;28;20783;-76
2022/11/08 07:05:32;;;;;;;3.55;1.38;;;;;;;14.08;54.80;99476.34;5029619;28;20149;-80
2022/11/08 07:08:00;;;;;;;3.30;1.23;;;;;;;14.36;54.51;99481.81;5019338;28;20049;-78
2022/11/08 07:10:31;;;;;;;3.55;1.00;;;;;;;14.51;54.28;99480.16;5013916;28;20065;-78
2022/11/08 07:12:59;;;;;;;3.30;1.27;;;;;;;14.46;54.30;99481.25;5025182;28;20057;-78
2022/11/08 07:15:29;;;;;;;2.80;1.10;;;;;;;14.44;53.05;99477.19;5027570;28;20064;-74
2022/11/08 07:18:00;;;;;;;2.20;1.10;;;;;;;14.63;52.83;99463.25;5031222;28;20148;-74
2022/11/08 07:20:27;;;;;;;3.67;1.50;;;;;;;14.56;52.92;99466.69;5031164;28;20057;-75
2022/11/08 07:22:55;;;;;;;2.15;1.10;;;;;;;14.74;51.90;99469.91;5031490;28;20057;-76
2022/11/08 07:25:25;;;;;;;2.22;1.05;;;;;;;14.54;53.02;99466.22;5030911;28;20057;-75
2022/11/08 07:27:54;;;;;;;;;;;;;;;14.57;52.61;99468.34;5020661;28;20077;-76
2022/11/08 07:30:21;;;;;;;2.08;0.85;;;;;;;14.71;51.81;99478.22;5021958;28;19921;-76
2022/11/08 07:32:50;;;;;;;2.33;1.10;;;;;;;14.81;51.11;99478.47;5030966;28;20054;-76
2022/11/08 07:35:18;;;;;;;2.47;1.00;;;;;;;14.82;51.15;99473.66;5026489;28;20065;-76
2022/11/08 07:37:46;;;;;;;2.22;1.00;;;;;;;14.98;51.39;99484.81;5016213;28;20057;-75
2022/11/08 07:40:13;;;;;;;2.03;1.00;;;;;;;14.96;51.28;99467.56;5021062;28;20065;-76
2022/11/08 07:42:42;;;;;;;1.98;1.10;;;;;;;15.13;49.63;99469.91;5011535;28;20493;-79
2022/11/08 07:45:11;;;;;;;2.95;1.05;;;;;;;15.29;50.23;99466.22;5022029;28;20057;-76
2022/11/08 07:47:38;;;;;;;1.60;0.90;;;;;;;15.27;49.62;99465.78;5025118;28;20413;-76
2022/11/08 07:50:07;;;;;;;2.53;1.00;;;;;;;15.64;49.99;99471.66;5021554;28;20060;-75
2022/11/08 07:52:35;;;;;;;;;;;;;;;17.04;46.32;99474.69;5034636;28;20072;-76
2022/11/08 07:55:02;;;;;;;2.17;1.00;;;;;;;17.96;43.69;99472.47;5034726;28;19944;-75
2022/11/08 07:57:29;;;;;;;2.53;0.98;;;;;;;18.76;42.29;99460.56;5032777;28;20053;-75
2022/11/08 07:59:56;;;;;;;3.92;1.10;;;;;;;20.00;39.62;99455.72;5022300;28;20056;-75
2022/11/08 08:02:24;;;;;;;2.38;1.08;;;;;;;20.80;37.76;99462.91;5031336;28;20529;-75
2022/11/08 08:04:51;;;;;;;2.58;1.02;;;;;;;21.03;37.66;99463.22;5015842;28;20406;-75
2022/11/08 08:07:20;;;;;;;2.97;1.02;;;;;;;21.04;36.94;99450.69;5014625;28;20054;-75
2022/11/08 08:09:47;;;;;;;2.05;1.00;;;;;;;21.32;36.33;99465.13;5017122;28;20072;-75
2022/11/08 08:12:14;;;;;;;3.20;0.93;;;;;;;21.64;35.71;99464.97;5026073;28;20414;-75
2022/11/08 08:14:41;;;;;;;4.10;1.23;;;;;;;21.60;35.57;99459.31;5014598;28;20062;-76
2022/11/08 08:17:09;;;;;;;2.90;1.25;;;;;;;21.90;35.88;99452.22;5017579;28;20057;-76
2022/11/08 08:19:36;;;;;;;1.83;0.90;;;;;;;22.31;34.19;99456.38;5033796;28;20057;-76
2022/11/08 08:22:03;;;;;;;1.67;0.80;;;;;;;22.94;33.60;99441.94;5033960;28;20422;-75
2022/11/08 08:24:32;;;;;;;2.17;0.98;;;;;;;22.75;33.91;99457.56;5034014;28;20494;-75
2022/11/08 08:27:00;;;;;;;2.08;0.80;;;;;;;23.30;33.19;99454.47;5034397;28;20061;-75
2022/11/08 08:29:28;;;;;;;2.17;0.90;;;;;;;23.42;33.21;99455.16;5033875;28;20062;-75
2022/11/08 08:31:55;;;;;;;1.85;0.90;;;;;;;24.06;31.68;99468.41;5031135;28;20056;-75
2022/11/08 08:34:23;;;;;;;2.88;1.35;;;;;;;24.06;31.39;99459.06;5014545;28;20060;-75
2022/11/08 08:36:50;;;;;;;3.28;1.00;;;;;;;24.84;30.43;99461.75;5015165;28;20435;-75
2022/11/08 08:39:17;;;;;;;1.45;0.82;;;;;;;25.27;30.13;99483.75;5014743;28;20058;-75
2022/11/08 08:41:46;;;;;;;2.65;1.00;;;;;;;24.46;30.15;99471.41;5014810;28;20054;-75
2022/11/08 08:44:13;;;;;;;2.33;1.05;;;;;;;25.51;30.13;99476.69;5014626;28;20497;-76
2022/11/08 08:46:41;;;;;;;1.80;1.13;;;;;;;26.66;28.43;99485.34;5020790;28;20045;-75
2022/11/08 08:49:08;;;;;;;2.42;1.10;;;;;;;26.00;28.87;99475.22;5034241;28;20072;-75
2022/11/08 08:51:35;;;;;;;2.88;0.98;;;;;;;26.62;28.43;99469.56;5034701;28;20054;-75
2022/11/08 08:54:02;;;;;;;1.83;1.25;;;;;;;26.59;28.02;99473.34;5034251;28;20069;-76
2022/11/08 08:56:30;;;;;;;1.50;1.00;;;;;;;26.97;27.59;99467.00;5033902;28;20065;-75
2022/11/08 08:58:59;;;;;;;2.60;1.10;;;;;;;27.05;27.58;99474.09;5033721;28;20062;-76
2022/11/08 09:01:27;;;;;;;3.83;1.23;;;;;;;27.44;27.13;99472.16;5024240;28;20068;-76
2022/11/08 09:03:54;;;;;;;2.55;1.20;;;;;;;28.10;26.02;99479.09;5033995;28;20410;-76
2022/11/08 09:06:21;;;;;;;3.40;1.38;;;;;;;27.39;26.80;99484.97;5034028;28;20064;-76
2022/11/08 09:08:49;;;;;;;2.65;1.10;;;;;;;27.01;27.45;99474.19;5033951;28;20422;-75
2022/11/08 09:11:16;;;;;;;2.60;1.13;;;;;;;25.67;29.25;99475.91;5033398;28;20062;-75
2022/11/08 09:13:43;;;;;;;5.18;1.67;;;;;;;24.04;31.86;99462.38;5034213;28;20061;-76
2022/11/08 09:16:13;;;;;;;1.90;1.20;;;;;;;24.41;31.17;99451.16;5032655;28;20054;-78
2022/11/08 09:18:40;;;;;;;3.15;1.25;;;;;;;23.79;32.02;99462.75;5015084;28;20054;-76
2022/11/08 09:21:08;;;;;;;4.22;1.58;;;;;;;23.68;32.32;99460.03;5013714;28;20072;-75
2022/11/08 09:23:35;;;;;;;2.05;1.23;;;;;;;24.47;31.54;99460.81;5013616;28;20057;-76
2022/11/08 09:26:05;;;;;;;5.90;1.30;;;;;;;24.17;32.12;99454.03;5014059;28;20060;-76
2022/11/08 09:28:34;;;;;;;2.13;1.05;;;;;;;24.37;31.05;99454.06;5025192;28;20087;-77
2022/11/08 09:31:03;;;;;;;3.17;1.60;;;;;;;23.41;32.79;99445.78;5029495;28;20057;-76
2022/11/08 09:33:32;;;;;;;3.95;1.35;;;;;;;23.50;32.03;99450.97;5033376;28;20088;-77
2022/11/08 09:36:01;;;;;;;3.35;1.15;;;;;;;22.45;33.85;99456.25;5033526;28;20398;-76
2022/11/08 09:38:28;;;;;;;3.05;1.15;;;;;;;23.06;33.12;99450.72;5033624;28;20057;-76
2022/11/08 09:41:07;;;;;;;3.35;1.33;;;;;;;23.26;33.35;99441.53;5033420;28;20473;-76
2022/11/08 09:43:46;;;;;;;3.50;1.30;;;;;;;21.82;34.75;99473.38;5032470;28;20070;-76
2022/11/08 09:46:23;;;;;;;2.78;1.40;;;;;;;21.72;34.54;99460.88;5032987;28;20119;-76
2022/11/08 09:48:53;;;;;;;3.35;1.20;;;;;;;21.97;34.14;99462.72;5032664;28;20053;-76
2022/11/08 09:51:23;;;;;;;3.08;1.42;;;;;;;21.99;34.47;99463.91;5033024;28;20058;-75
2022/11/08 09:53:54;;;;;;;3.17;1.30;;;;;;;22.27;33.97;99454.38;5032410;28;20087;-76
2022/11/08 09:56:27;;;;;;;3.13;1.17;;;;;;;21.78;33.84;99470.56;5033120;28;20080;-76
2022/11/08 09:59:00;;;;;;;2.28;1.15;;;;;;;22.02;33.62;99479.28;5031912;28;20064;-75
2022/11/08 10:01:30;;;;;;;3.10;1.55;;;;;;;21.68;34.13;99477.91;5032759;28;20058;-76
2022/11/08 10:04:04;;;;;;;3.38;1.20;;;;;;;21.94;33.64;99467.19;5032735;28;20390;-75
2022/11/08 10:07:01;;;;;;;2.60;1.17;;;;;;;21.96;33.64;99487.41;5032988;28;20414;-77
2022/11/08 10:09:54;;;;;;;2.22;1.10;;;;;;;21.48;34.33;99476.78;5032539;28;20064;-75
2022/11/08 10:12:25;;;;;;;3.20;1.38;;;;;;;21.21;34.19;99463.16;5031135;28;20060;-76
2022/11/08 10:15:10;;;;;;;1.60;0.98;;;;;;;20.87;35.42;99468.53;5018654;28;20430;-76
2022/11/08 10:17:52;;;;;;;2.10;1.10;;;;;;;20.65;36.20;99457.28;5013066;28;20061;-76
2022/11/08 10:20:34;;;;;;;3.22;1.20;;;;;;;20.00;36.81;99467.03;5012910;28;20483;-76
2022/11/08 10:23:15;;;;;;;3.33;1.33;;;;;;;19.40;37.89;99460.03;5012950;28;20058;-76
2022/11/08 10:25:45;;;;;;;2.05;1.23;;;;;;;19.46;38.34;99452.78;5013422;28;20057;-76
2022/11/08 10:28:16;;;;;;;2.03;1.20;;;;;;;19.11;39.98;99445.00;5024508;28;20387;-75
2022/11/08 10:30:48;;;;;;;3.05;1.38;;;;;;;19.12;39.22;99449.47;5032528;28;20061;-77
2022/11/08 10:33:21;;;;;;;3.10;1.30;;;;;;;18.69;40.33;99483.06;5032557;28;20059;-77
2022/11/08 10:35:57;;;;;;;3.08;1.50;;;;;;;18.46;40.63;99453.94;5032733;28;20061;-76
2022/11/08 10:38:32;;;;;;;4.80;1.23;;;;;;;18.26;41.06;99449.75;5032502;28;20084;-76
2022/11/08 10:41:10;;;;;;;3.97;1.20;;;;;;;18.29;41.08;99482.00;5032612;28;20058;-76
2022/11/08 10:43:42;;;;;;;2.85;1.27;;;;;;;17.96;42.93;99453.56;5014215;28;20061;-76
2022/11/08 10:46:42;;;;;;;6.28;1.70;;;;;;;17.85;42.72;99444.22;5012587;28;20077;-76
2022/11/08 10:49:17;;;;;;;2.92;2.70;;;;;;;17.54;43.19;99439.88;5012143;28;20065;-76
2022/11/08 10:51:48;;;;;;;4.28;1.30;;;;;;;17.32;44.40;99450.88;5011908;28;20069;-76
2022/11/08 10:54:44;;;;;;;2.92;1.42;;;;;;;17.79;43.41;99446.53;5012018;28;20061;-76
2022/11/08 10:57:13;;;;;;;2.13;1.20;;;;;;;17.48;44.12;99449.84;5030307;28;20049;-76
2022/11/08 10:59:42;;;;;;;2.38;1.30;;;;;;;17.62;43.38;99442.38;5031294;28;20070;-76
2022/11/08 11:02:25;;;;;;;2.92;1.60;;;;;;;17.49;44.44;99423.31;5031706;28;20053;-77
2022/11/08 11:04:54;;;;;;;2.65;1.33;;;;;;;17.58;43.69;99430.25;5031708;28;20057;-76
2022/11/08 11:07:30;;;;;;;3.00;1.95;;;;;;;17.35;44.70;99421.97;5031368;28;20050;-76
2022/11/08 11:09:58;;;;;;;3.35;1.27;;;;;;;17.39;44.04;99419.22;5031492;28;20466;-76
2022/11/08 11:12:25;;;;;;;2.28;1.30;;;;;;;17.20;44.50;99414.59;5030397;28;20084;-76
2022/11/08 11:14:57;;;;;;;2.90;1.30;;;;;;;17.12;44.86;99446.66;5031420;28;20064;-76
2022/11/08 11:17:31;;;;;;;4.93;1.90;;;;;;;17.02;45.01;99437.69;5031338;28;20482;-76
2022/11/08 11:19:59;;;;;;;4.25;1.40;;;;;;;17.24;44.60;99421.06;5031340;28;20076;-75
2022/11/08 11:22:32;;;;;;;2.30;1.38;;;;;;;17.10;44.98;99421.69;5031128;28;20057;-76
2022/11/08 11:25:07;;;;;;;2.40;1.40;;;;;;;17.30;44.35;99422.31;5033704;28;20057;-76
2022/11/08 11:27:38;;;;;;;2.85;1.25;;;;;;;17.24;44.61;99432.31;5016383;28;20064;-76
2022/11/08 11:30:30;;;;;;;3.00;1.45;;;;;;;17.00;45.04;99428.00;5015597;28;20061;-76
2022/11/08 11:33:04;;;;;;;6.22;1.85;;;;;;;17.17;44.77;99432.22;5033395;28;20076;-76
2022/11/08 11:35:41;;;;;;;2.95;1.48;;;;;;;16.99;45.13;99427.22;5035209;28;20053;-76
2022/11/08 11:38:19;;;;;;;2.75;1.30;;;;;;;16.76;46.00;99418.84;5034761;28;20149;-76
2022/11/08 11:40:49;;;;;;;2.25;1.42;;;;;;;16.90;45.43;99423.88;5034926;28;20061;-76
2022/11/08 11:43:24;;;;;;;3.83;1.30;;;;;;;16.80;46.20;99407.66;5035044;28;20072;-76
2022/11/08 11:45:58;;;;;;;3.22;1.27;;;;;;;16.75;46.07;99407.97;5035134;28;20058;-75
2022/11/08 11:48:28;;;;;;;3.70;1.25;;;;;;;16.87;46.02;99413.41;5034944;28;20061;-76
2022/11/08 11:50:56;;;;;;;2.42;1.52;;;;;;;16.89;46.13;99405.38;5034947;28;20068;-76
2022/11/08 11:53:28;;;;;;;3.70;1.40;;;;;;;17.12;45.87;99396.00;5034410;28;20490;-75
2022/11/08 11:56:19;;;;;;;4.35;2.08;;;;;;;16.74;45.82;99397.94;5034364;28;20068;-76
2022/11/08 11:59:10;;;;;;;2.20;1.45;;;;;;;16.99;46.01;99390.63;5034383;28;20054;-76
2022/11/08 12:01:54;;;;;;;3.53;1.80;;;;;;;17.14;45.44;99400.03;5013291;28;20058;-75
2022/11/08 12:04:46;;;;;;;2.45;1.40;;;;;;;17.33;45.36;99384.97;5034265;28;20060;-79
2022/11/08 12:07:21;;;;;;;2.72;1.50;;;;;;;17.57;44.69;99419.38;5034634;28;20064;-76
2022/11/08 12:10:04;;;;;;;2.28;1.30;;;;;;;17.63;44.89;99386.84;5033798;28;20054;-76